createdAt,value
2017-11-23T00:00:21.020Z,9.56
2017-11-23T00:01:29.834Z,9.57
2017-11-23T00:02:38.373Z,9.56
2017-11-23T00:03:47.461Z,9.6
2017-11-23T00:04:56.271Z,9.62
2017-11-23T00:06:05.086Z,9.53
2017-11-23T00:07:13.898Z,9.6
2017-11-23T00:08:22.706Z,9.57
2017-11-23T00:09:31.520Z,9.6
2017-11-23T00:10:46.324Z,9.53
2017-11-23T00:11:54.869Z,9.63
2017-11-23T00:13:03.955Z,9.55
2017-11-23T00:14:12.765Z,9.59
2017-11-23T00:15:21.847Z,9.64
2017-11-23T00:16:30.388Z,9.55
2017-11-23T00:17:38.928Z,9.62
2017-11-23T00:18:47.748Z,9.64
2017-11-23T00:19:56.290Z,9.6
2017-11-23T00:21:04.826Z,9.6
2017-11-23T00:22:13.632Z,9.59
2017-11-23T00:23:22.441Z,9.56
2017-11-23T00:24:31.251Z,9.71
2017-11-23T00:25:40.600Z,9.71
2017-11-23T00:26:49.339Z,9.64
2017-11-23T00:27:58.150Z,9.66
2017-11-23T00:29:06.963Z,9.67
2017-11-23T00:30:15.774Z,9.75
2017-11-23T00:31:24.605Z,9.75
2017-11-23T00:32:33.153Z,9.77
2017-11-23T00:33:41.967Z,9.75
2017-11-23T00:34:50.782Z,9.8
2017-11-23T00:35:59.595Z,9.75
2017-11-23T00:37:08.422Z,9.78
2017-11-23T00:38:17.228Z,9.81
2017-11-23T00:39:26.039Z,9.78
2017-11-23T00:40:35.128Z,9.77
2017-11-23T00:41:43.665Z,9.82
2017-11-23T00:42:52.200Z,9.82
2017-11-23T00:44:01.013Z,9.81
2017-11-23T00:45:09.829Z,9.89
2017-11-23T00:46:18.636Z,9.93
2017-11-23T00:47:27.175Z,9.84
2017-11-23T00:48:35.988Z,9.93
2017-11-23T00:49:45.349Z,9.93
2017-11-23T00:50:53.890Z,9.89
2017-11-23T00:52:02.704Z,9.9
2017-11-23T00:53:11.242Z,9.89
2017-11-23T00:54:19.779Z,9.9
2017-11-23T00:55:28.590Z,9.92
2017-11-23T00:56:37.130Z,9.95
2017-11-23T00:57:45.952Z,9.85
2017-11-23T00:58:55.039Z,9.9
2017-11-23T01:00:04.120Z,9.95
2017-11-23T01:01:12.936Z,9.92
2017-11-23T01:02:21.753Z,9.92
2017-11-23T01:03:30.560Z,9.89
2017-11-23T01:04:39.374Z,9.92
2017-11-23T01:05:48.458Z,9.92
2017-11-23T01:06:57.271Z,9.89
2017-11-23T01:08:06.083Z,9.93
2017-11-23T01:09:14.891Z,9.9
2017-11-23T01:10:23.721Z,9.92
2017-11-23T01:11:32.825Z,9.92
2017-11-23T01:12:41.362Z,9.98
2017-11-23T01:13:50.177Z,9.92
2017-11-23T01:14:58.988Z,9.9
2017-11-23T01:16:07.801Z,9.98
2017-11-23T01:17:16.880Z,9.92
2017-11-23T01:18:25.961Z,10
2017-11-23T01:19:34.874Z,9.9
2017-11-23T01:20:43.412Z,9.92
2017-11-23T01:21:52.222Z,9.96
2017-11-23T01:23:00.760Z,9.89
2017-11-23T01:24:09.574Z,9.9
2017-11-23T01:25:18.116Z,9.99
2017-11-23T01:26:26.653Z,9.98
2017-11-23T01:27:35.188Z,9.92
2017-11-23T01:28:44.288Z,9.95
2017-11-23T01:29:53.367Z,9.92
2017-11-23T01:31:01.906Z,9.96
2017-11-23T01:32:10.446Z,9.92
2017-11-23T01:33:18.981Z,9.98
2017-11-23T01:34:27.522Z,9.96
2017-11-23T01:35:36.062Z,9.98
2017-11-23T01:36:44.602Z,9.99
2017-11-23T01:37:53.138Z,10.07
2017-11-23T01:39:01.947Z,9.95
2017-11-23T01:40:10.485Z,9.98
2017-11-23T01:41:19.569Z,10.02
2017-11-23T01:42:28.382Z,9.96
2017-11-23T01:43:37.190Z,9.99
2017-11-23T01:44:45.732Z,9.98
2017-11-23T01:45:54.539Z,9.98
2017-11-23T01:47:03.618Z,9.99
2017-11-23T01:48:12.159Z,9.98
2017-11-23T01:49:20.704Z,10.08
2017-11-23T01:50:29.511Z,9.98
2017-11-23T01:51:38.590Z,9.93
2017-11-23T01:52:47.672Z,10.03
2017-11-23T01:53:56.484Z,9.98
2017-11-23T01:55:05.295Z,9.99
2017-11-23T01:56:13.838Z,10.03
2017-11-23T01:57:22.385Z,9.99
2017-11-23T01:58:31.197Z,9.98
2017-11-23T01:59:40.281Z,10.03
2017-11-23T02:00:49.093Z,9.96
2017-11-23T02:01:57.900Z,9.95
2017-11-23T02:03:06.724Z,9.93
2017-11-23T02:04:15.261Z,10
2017-11-23T02:05:24.072Z,10
2017-11-23T02:06:33.165Z,9.99
2017-11-23T02:07:41.702Z,9.98
2017-11-23T02:08:50.525Z,9.92
2017-11-23T02:09:59.337Z,9.96
2017-11-23T02:11:08.425Z,10
2017-11-23T02:12:17.508Z,10
2017-11-23T02:13:26.048Z,9.99
2017-11-23T02:14:34.859Z,10
2017-11-23T02:15:43.667Z,10
2017-11-23T02:16:52.488Z,10
2017-11-23T02:18:01.040Z,10.05
2017-11-23T02:19:10.105Z,9.96
2017-11-23T02:20:18.912Z,9.99
2017-11-23T02:21:27.721Z,10
2017-11-23T02:22:36.818Z,9.98
2017-11-23T02:23:45.349Z,10.05
2017-11-23T02:24:53.894Z,10
2017-11-23T02:26:02.978Z,10.02
2017-11-23T02:27:12.058Z,10.03
2017-11-23T02:28:20.876Z,10.1
2017-11-23T02:29:29.413Z,10.02
2017-11-23T02:30:37.951Z,10.02
2017-11-23T02:31:46.764Z,10.02
2017-11-23T02:32:55.571Z,9.98
2017-11-23T02:34:04.115Z,10.02
2017-11-23T02:35:12.934Z,10.07
2017-11-23T02:36:21.744Z,10.13
2017-11-23T02:37:30.288Z,10.15
2017-11-23T02:38:39.105Z,10.14
2017-11-23T02:39:47.648Z,10.14
2017-11-23T02:40:56.738Z,10.07
2017-11-23T02:42:05.276Z,10.05
2017-11-23T02:43:14.097Z,10.03
2017-11-23T02:44:23.179Z,10.05
2017-11-23T02:45:31.725Z,9.96
2017-11-23T02:46:40.264Z,10.02
2017-11-23T02:47:48.802Z,10
2017-11-23T02:48:58.164Z,9.96
2017-11-23T02:50:06.706Z,10.05
2017-11-23T02:51:15.530Z,9.99
2017-11-23T02:52:24.340Z,10.07
2017-11-23T02:53:32.884Z,10.1
2017-11-23T02:54:41.693Z,9.99
2017-11-23T02:55:50.500Z,10.05
2017-11-23T02:56:59.341Z,10.15
2017-11-23T02:58:08.127Z,10.07
2017-11-23T02:59:16.939Z,10.13
2017-11-23T03:00:25.745Z,10.14
2017-11-23T03:01:34.563Z,10.14
2017-11-23T03:02:43.368Z,10.07
2017-11-23T03:03:52.178Z,10.07
2017-11-23T03:05:00.999Z,10.11
2017-11-23T03:06:09.543Z,10.08
2017-11-23T03:07:18.354Z,10.05
2017-11-23T03:08:27.159Z,10.13
2017-11-23T03:09:36.239Z,10.17
2017-11-23T03:10:44.783Z,10.08
2017-11-23T03:11:53.586Z,10.14
2017-11-23T03:13:02.669Z,10.15
2017-11-23T03:14:11.481Z,10.05
2017-11-23T03:15:20.574Z,10.14
2017-11-23T03:16:29.113Z,10.14
2017-11-23T03:17:37.925Z,10.1
2017-11-23T03:18:46.464Z,10.07
2017-11-23T03:19:55.000Z,10.1
2017-11-23T03:21:04.082Z,10.14
2017-11-23T03:22:12.907Z,10.05
2017-11-23T03:23:21.433Z,10.14
2017-11-23T03:24:30.787Z,10.07
2017-11-23T03:25:39.323Z,10.14
2017-11-23T03:26:47.864Z,10.05
2017-11-23T03:27:56.677Z,10.14
2017-11-23T03:29:05.489Z,10.11
2017-11-23T03:30:14.571Z,10.1
2017-11-23T03:31:23.677Z,9.98
2017-11-23T03:32:32.482Z,10.07
2017-11-23T03:33:41.021Z,10.14
2017-11-23T03:34:49.831Z,10.07
2017-11-23T03:35:58.369Z,10.1
2017-11-23T03:37:07.178Z,10.11
2017-11-23T03:38:15.725Z,10.02
2017-11-23T03:39:24.842Z,10.1
2017-11-23T03:40:33.383Z,10.13
2017-11-23T03:41:42.199Z,10.03
2017-11-23T03:42:51.007Z,10.07
2017-11-23T03:44:00.087Z,10.05
2017-11-23T03:45:08.897Z,10.02
2017-11-23T03:46:17.711Z,10
2017-11-23T03:47:26.797Z,10.14
2017-11-23T03:48:35.883Z,9.99
2017-11-23T03:49:44.417Z,10.02
2017-11-23T03:50:53.527Z,10.02
2017-11-23T03:52:02.601Z,10.1
2017-11-23T03:53:11.966Z,10
2017-11-23T03:54:20.504Z,10.1
2017-11-23T03:55:29.315Z,10.1
2017-11-23T03:56:38.401Z,10.07
2017-11-23T03:57:46.939Z,10.08
2017-11-23T03:58:55.478Z,10.13
2017-11-23T04:00:04.287Z,10.15
2017-11-23T04:01:13.651Z,10.07
2017-11-23T04:02:22.462Z,10.15
2017-11-23T04:03:31.273Z,10.08
2017-11-23T04:04:39.836Z,10.15
2017-11-23T04:05:48.659Z,10.21
2017-11-23T04:06:57.473Z,10.18
2017-11-23T04:08:06.004Z,10.1
2017-11-23T04:09:15.093Z,10.15
2017-11-23T04:10:23.635Z,10.25
2017-11-23T04:11:32.719Z,10.25
2017-11-23T04:12:41.800Z,10.28
2017-11-23T04:13:50.341Z,10.25
2017-11-23T04:14:59.426Z,10.36
2017-11-23T04:16:08.512Z,10.23
2017-11-23T04:17:17.052Z,10.33
2017-11-23T04:18:25.861Z,10.33
2017-11-23T04:19:34.945Z,10.41
2017-11-23T04:20:43.760Z,10.47
2017-11-23T04:21:52.298Z,10.36
2017-11-23T04:23:00.838Z,10.42
2017-11-23T04:24:09.653Z,10.46
2017-11-23T04:25:18.497Z,10.55
2017-11-23T04:26:27.310Z,10.46
2017-11-23T04:27:36.120Z,10.46
2017-11-23T04:28:44.932Z,10.51
2017-11-23T04:29:54.015Z,10.51
2017-11-23T04:31:02.562Z,10.47
2017-11-23T04:32:11.642Z,10.54
2017-11-23T04:33:20.187Z,10.58
2017-11-23T04:34:28.992Z,10.55
2017-11-23T04:35:38.073Z,10.57
2017-11-23T04:36:46.884Z,10.59
2017-11-23T04:37:56.232Z,10.58
2017-11-23T04:39:04.776Z,10.55
2017-11-23T04:40:13.587Z,10.58
2017-11-23T04:41:22.394Z,10.65
2017-11-23T04:42:32.034Z,10.61
2017-11-23T04:43:41.120Z,10.61
2017-11-23T04:44:49.925Z,10.66
2017-11-23T04:45:58.732Z,10.67
2017-11-23T04:47:07.539Z,10.7
2017-11-23T04:48:16.619Z,10.61
2017-11-23T04:49:25.200Z,10.72
2017-11-23T04:50:33.697Z,10.7
2017-11-23T04:51:43.346Z,10.72
2017-11-23T04:52:51.886Z,10.69
2017-11-23T04:54:00.427Z,10.69
2017-11-23T04:55:09.237Z,10.75
2017-11-23T04:56:18.048Z,10.79
2017-11-23T04:57:26.860Z,10.76
2017-11-23T04:58:35.399Z,10.76
2017-11-23T04:59:44.752Z,10.76
2017-11-23T05:00:53.558Z,10.75
2017-11-23T05:02:02.099Z,10.79
2017-11-23T05:03:11.177Z,10.79
2017-11-23T05:04:19.716Z,10.72
2017-11-23T05:05:28.524Z,10.73
2017-11-23T05:06:37.341Z,10.77
2017-11-23T05:07:46.154Z,10.76
2017-11-23T05:08:54.962Z,10.79
2017-11-23T05:10:03.777Z,10.83
2017-11-23T05:11:12.862Z,10.85
2017-11-23T05:12:21.947Z,10.91
2017-11-23T05:13:30.758Z,10.87
2017-11-23T05:14:39.585Z,10.8
2017-11-23T05:15:48.398Z,10.92
2017-11-23T05:16:57.207Z,10.94
2017-11-23T05:18:06.014Z,10.8
2017-11-23T05:19:14.565Z,10.87
2017-11-23T05:20:23.378Z,10.84
2017-11-23T05:21:32.455Z,10.88
2017-11-23T05:22:41.542Z,10.88
2017-11-23T05:23:50.356Z,10.87
2017-11-23T05:24:59.450Z,10.87
2017-11-23T05:26:08.259Z,10.84
2017-11-23T05:27:16.843Z,10.92
2017-11-23T05:28:25.402Z,10.92
2017-11-23T05:29:34.144Z,10.92
2017-11-23T05:30:42.685Z,10.94
2017-11-23T05:31:51.228Z,10.85
2017-11-23T05:32:59.769Z,10.9
2017-11-23T05:34:08.582Z,10.98
2017-11-23T05:35:17.662Z,10.94
2017-11-23T05:36:26.473Z,10.92
2017-11-23T05:37:35.012Z,10.95
2017-11-23T05:38:43.550Z,10.97
2017-11-23T05:39:52.362Z,10.94
2017-11-23T05:41:01.172Z,11.02
2017-11-23T05:42:09.981Z,11.02
2017-11-23T05:43:18.793Z,11.02
2017-11-23T05:44:27.334Z,11
2017-11-23T05:45:36.144Z,11.06
2017-11-23T05:46:44.680Z,11.06
2017-11-23T05:47:53.494Z,11.1
2017-11-23T05:49:02.577Z,11.13
2017-11-23T05:50:11.391Z,11.16
2017-11-23T05:51:20.202Z,11.15
2017-11-23T05:52:29.300Z,11.15
2017-11-23T05:53:37.842Z,11.23
2017-11-23T05:54:46.653Z,11.2
2017-11-23T05:55:55.191Z,11.23
2017-11-23T05:57:04.280Z,11.26
2017-11-23T05:58:13.391Z,11.23
2017-11-23T05:59:22.210Z,11.33
2017-11-23T06:00:30.750Z,11.34
2017-11-23T06:01:39.291Z,11.27
2017-11-23T06:02:48.101Z,11.26
2017-11-23T06:03:56.646Z,11.27
2017-11-23T06:05:05.455Z,11.35
2017-11-23T06:06:14.265Z,11.39
2017-11-23T06:07:23.350Z,11.34
2017-11-23T06:08:32.160Z,11.42
2017-11-23T06:09:41.238Z,11.45
2017-11-23T06:10:49.778Z,11.43
2017-11-23T06:11:58.589Z,11.42
2017-11-23T06:13:07.129Z,11.43
2017-11-23T06:14:15.938Z,11.34
2017-11-23T06:15:24.476Z,11.35
2017-11-23T06:16:33.014Z,11.48
2017-11-23T06:17:41.560Z,11.49
2017-11-23T06:18:50.365Z,11.53
2017-11-23T06:19:59.722Z,11.46
2017-11-23T06:21:08.825Z,11.53
2017-11-23T06:22:17.636Z,11.56
2017-11-23T06:23:26.182Z,11.52
2017-11-23T06:24:34.715Z,11.56
2017-11-23T06:25:43.253Z,11.68
2017-11-23T06:26:51.794Z,11.53
2017-11-23T06:28:00.606Z,11.59
2017-11-23T06:29:09.420Z,11.57
2017-11-23T06:30:17.959Z,11.63
2017-11-23T06:31:27.036Z,11.67
2017-11-23T06:32:35.846Z,11.6
2017-11-23T06:33:44.657Z,11.67
2017-11-23T06:34:53.198Z,11.61
2017-11-23T06:36:02.017Z,11.63
2017-11-23T06:37:11.101Z,11.68
2017-11-23T06:38:19.923Z,11.7
2017-11-23T06:39:28.735Z,11.68
2017-11-23T06:40:37.278Z,11.67
2017-11-23T06:41:46.093Z,11.68
2017-11-23T06:42:55.479Z,11.75
2017-11-23T06:44:04.024Z,11.68
2017-11-23T06:45:12.834Z,11.76
2017-11-23T06:46:21.642Z,11.84
2017-11-23T06:47:30.449Z,11.79
2017-11-23T06:48:39.262Z,11.79
2017-11-23T06:49:48.074Z,11.78
2017-11-23T06:50:56.883Z,11.64
2017-11-23T06:52:05.421Z,11.76
2017-11-23T06:53:14.784Z,11.81
2017-11-23T06:54:23.323Z,11.78
2017-11-23T06:55:32.170Z,11.68
2017-11-23T06:56:40.813Z,11.81
2017-11-23T06:57:49.902Z,11.67
2017-11-23T06:58:59.257Z,11.71
2017-11-23T07:00:08.338Z,11.68
2017-11-23T07:01:17.150Z,11.6
2017-11-23T07:02:25.692Z,11.53
2017-11-23T07:03:34.240Z,11.67
2017-11-23T07:04:42.772Z,11.63
2017-11-23T07:05:51.354Z,11.61
2017-11-23T07:06:59.894Z,11.64
2017-11-23T07:08:08.709Z,11.46
2017-11-23T07:09:17.517Z,11.57
2017-11-23T07:10:26.346Z,11.53
2017-11-23T07:11:34.883Z,11.48
2017-11-23T07:12:43.423Z,11.51
2017-11-23T07:13:52.236Z,11.45
2017-11-23T07:15:01.035Z,11.52
2017-11-23T07:16:10.132Z,11.42
2017-11-23T07:17:19.230Z,11.39
2017-11-23T07:18:28.311Z,11.41
2017-11-23T07:19:37.423Z,11.42
2017-11-23T07:20:46.368Z,11.48
2017-11-23T07:21:55.183Z,11.39
2017-11-23T07:23:04.545Z,11.46
2017-11-23T07:24:13.283Z,11.41
2017-11-23T07:25:21.947Z,11.38
2017-11-23T07:26:30.970Z,11.42
2017-11-23T07:27:39.521Z,11.38
2017-11-23T07:28:48.335Z,11.41
2017-11-23T07:29:57.146Z,11.39
2017-11-23T07:31:06.490Z,11.3
2017-11-23T07:32:15.313Z,11.33
2017-11-23T07:33:24.170Z,11.38
2017-11-23T07:34:32.994Z,11.39
2017-11-23T07:35:41.876Z,11.35
2017-11-23T07:36:50.723Z,11.41
2017-11-23T07:37:59.422Z,11.31
2017-11-23T07:39:08.568Z,11.38
2017-11-23T07:40:17.856Z,11.38
2017-11-23T07:41:26.405Z,11.38
2017-11-23T07:42:35.219Z,11.39
2017-11-23T07:43:44.032Z,11.41
2017-11-23T07:44:52.574Z,11.43
2017-11-23T07:46:01.186Z,11.46
2017-11-23T07:47:10.284Z,11.43
2017-11-23T07:48:19.372Z,11.38
2017-11-23T07:49:27.922Z,11.49
2017-11-23T07:50:36.463Z,11.38
2017-11-23T07:51:45.273Z,11.48
2017-11-23T07:52:53.819Z,11.52
2017-11-23T07:54:02.912Z,11.56
2017-11-23T07:55:11.992Z,11.64
2017-11-23T07:56:20.533Z,11.78
2017-11-23T07:57:29.614Z,11.84
2017-11-23T07:58:38.170Z,11.91
2017-11-23T07:59:46.992Z,11.97
2017-11-23T08:00:55.532Z,12.05
2017-11-23T08:02:04.364Z,12.08
2017-11-23T08:03:12.906Z,12.23
2017-11-23T08:04:21.724Z,12.2
2017-11-23T08:05:30.537Z,12.23
2017-11-23T08:06:39.349Z,12.23
2017-11-23T08:07:48.169Z,12.29
2017-11-23T08:08:57.051Z,12.37
2017-11-23T08:10:05.871Z,12.4
2017-11-23T08:11:14.421Z,12.51
2017-11-23T08:12:23.517Z,12.47
2017-11-23T08:13:32.101Z,12.62
2017-11-23T08:14:40.912Z,12.53
2017-11-23T08:15:49.451Z,12.66
2017-11-23T08:16:57.992Z,12.56
2017-11-23T08:18:06.805Z,12.65
2017-11-23T08:19:15.934Z,12.63
2017-11-23T08:20:24.728Z,12.71
2017-11-23T08:21:33.821Z,12.77
2017-11-23T08:22:43.205Z,12.77
2017-11-23T08:23:51.758Z,12.89
2017-11-23T08:25:00.584Z,12.88
2017-11-23T08:26:09.134Z,12.89
2017-11-23T08:27:17.974Z,12.95
2017-11-23T08:28:26.782Z,12.92
2017-11-23T08:29:35.600Z,13.06
2017-11-23T08:30:44.236Z,13.09
2017-11-23T08:31:53.335Z,13.03
2017-11-23T08:33:02.527Z,12.99
2017-11-23T08:34:11.165Z,13.02
2017-11-23T08:35:20.000Z,13.11
2017-11-23T08:36:30.619Z,13.24
2017-11-23T08:37:39.706Z,13.11
2017-11-23T08:38:48.787Z,13.2
2017-11-23T08:39:57.602Z,13.19
2017-11-23T08:41:06.689Z,13.2
2017-11-23T08:42:15.235Z,13.32
2017-11-23T08:43:24.163Z,13.32
2017-11-23T08:44:32.710Z,13.39
2017-11-23T08:45:41.585Z,13.44
2017-11-23T08:46:50.132Z,13.4
2017-11-23T08:47:58.947Z,13.42
2017-11-23T08:49:07.637Z,13.51
2017-11-23T08:50:16.453Z,13.53
2017-11-23T08:51:25.302Z,13.57
2017-11-23T08:52:34.157Z,13.55
2017-11-23T08:53:42.800Z,13.58
2017-11-23T08:54:51.379Z,13.68
2017-11-23T08:56:00.191Z,13.63
2017-11-23T08:57:08.732Z,13.6
2017-11-23T08:58:17.334Z,13.69
2017-11-23T08:59:26.149Z,13.76
2017-11-23T09:00:35.516Z,13.76
2017-11-23T09:01:44.116Z,13.7
2017-11-23T09:02:52.928Z,13.78
2017-11-23T09:04:02.022Z,13.76
2017-11-23T09:05:10.565Z,13.87
2017-11-23T09:06:19.103Z,13.79
2017-11-23T09:07:27.969Z,13.84
2017-11-23T09:08:37.422Z,13.87
2017-11-23T09:09:46.590Z,13.93
2017-11-23T09:10:55.912Z,13.97
2017-11-23T09:12:04.802Z,13.99
2017-11-23T09:13:13.514Z,14.01
2017-11-23T09:14:22.612Z,14.05
2017-11-23T09:15:31.427Z,14.08
2017-11-23T09:16:39.972Z,14.01
2017-11-23T09:17:48.788Z,14.11
2017-11-23T09:18:57.605Z,14.2
2017-11-23T09:20:06.431Z,14.19
2017-11-23T09:21:15.263Z,14.23
2017-11-23T09:22:24.077Z,14.21
2017-11-23T09:23:32.618Z,14.19
2017-11-23T09:24:41.451Z,14.21
2017-11-23T09:25:50.541Z,14.26
2017-11-23T09:26:59.356Z,14.34
2017-11-23T09:28:08.180Z,14.21
2017-11-23T09:29:16.789Z,14.24
2017-11-23T09:30:25.903Z,14.28
2017-11-23T09:31:34.447Z,14.33
2017-11-23T09:32:42.990Z,14.26
2017-11-23T09:33:52.085Z,14.34
2017-11-23T09:35:00.913Z,14.36
2017-11-23T09:36:10.023Z,14.3
2017-11-23T09:37:18.840Z,14.33
2017-11-23T09:38:27.385Z,14.36
2017-11-23T09:39:36.486Z,14.45
2017-11-23T09:40:45.040Z,14.44
2017-11-23T09:41:54.404Z,14.38
2017-11-23T09:43:03.219Z,14.41
2017-11-23T09:44:11.762Z,14.38
2017-11-23T09:45:20.934Z,14.45
2017-11-23T09:46:29.742Z,14.45
2017-11-23T09:47:38.293Z,14.52
2017-11-23T09:48:47.465Z,14.56
2017-11-23T09:49:56.010Z,14.52
2017-11-23T09:51:04.830Z,14.57
2017-11-23T09:52:13.371Z,14.53
2017-11-23T09:53:21.922Z,14.61
2017-11-23T09:54:30.740Z,14.59
2017-11-23T09:55:39.281Z,14.69
2017-11-23T09:56:47.823Z,14.6
2017-11-23T09:57:56.367Z,14.69
2017-11-23T09:59:05.728Z,14.7
2017-11-23T10:00:14.850Z,14.67
2017-11-23T10:01:23.958Z,14.64
2017-11-23T10:02:33.371Z,14.71
2017-11-23T10:03:42.186Z,14.74
2017-11-23T10:04:50.738Z,14.69
2017-11-23T10:05:59.305Z,14.66
2017-11-23T10:07:07.864Z,14.64
2017-11-23T10:08:16.702Z,14.66
2017-11-23T10:09:25.789Z,14.63
2017-11-23T10:10:34.647Z,14.56
2017-11-23T10:11:43.468Z,14.53
2017-11-23T10:12:52.287Z,14.52
2017-11-23T10:14:01.098Z,14.39
2017-11-23T10:15:09.654Z,14.41
2017-11-23T10:16:18.185Z,14.3
2017-11-23T10:17:27.308Z,14.36
2017-11-23T10:18:35.847Z,14.26
2017-11-23T10:19:44.389Z,14.21
2017-11-23T10:20:53.211Z,14.13
2017-11-23T10:22:02.563Z,14.11
2017-11-23T10:23:11.777Z,13.97
2017-11-23T10:24:20.640Z,13.94
2017-11-23T10:25:29.736Z,13.86
2017-11-23T10:26:38.275Z,13.93
2017-11-23T10:27:46.816Z,13.91
2017-11-23T10:28:56.172Z,13.87
2017-11-23T10:30:05.021Z,13.81
2017-11-23T10:31:14.107Z,13.78
2017-11-23T10:32:22.686Z,13.79
2017-11-23T10:33:32.702Z,13.75
2017-11-23T10:34:42.988Z,13.7
2017-11-23T10:35:51.533Z,13.69
2017-11-23T10:37:00.086Z,13.69
2017-11-23T10:38:09.030Z,13.7
2017-11-23T10:39:18.396Z,13.62
2017-11-23T10:40:27.759Z,13.69
2017-11-23T10:41:36.842Z,13.66
2017-11-23T10:42:45.648Z,13.68
2017-11-23T10:43:54.735Z,13.55
2017-11-23T10:45:04.098Z,13.63
2017-11-23T10:46:12.913Z,13.69
2017-11-23T10:47:21.727Z,13.7
2017-11-23T10:48:30.541Z,13.78
2017-11-23T10:49:39.100Z,13.73
2017-11-23T10:50:47.643Z,13.72
2017-11-23T10:51:56.217Z,13.75
2017-11-23T10:53:04.769Z,13.81
2017-11-23T10:54:13.370Z,13.83
2017-11-23T10:55:22.458Z,13.81
2017-11-23T10:56:31.009Z,13.91
2017-11-23T10:57:39.849Z,13.95
2017-11-23T10:58:48.666Z,14.03
2017-11-23T10:59:57.684Z,14.02
2017-11-23T11:01:06.228Z,14.02
2017-11-23T11:02:15.044Z,14.06
2017-11-23T11:03:23.859Z,14.21
2017-11-23T11:04:32.682Z,14.26
2017-11-23T11:05:41.495Z,14.33
2017-11-23T11:06:50.037Z,14.33
2017-11-23T11:07:58.852Z,14.31
2017-11-23T11:09:07.399Z,14.31
2017-11-23T11:10:15.938Z,14.46
2017-11-23T11:11:24.764Z,14.41
2017-11-23T11:12:33.853Z,14.53
2017-11-23T11:13:43.216Z,14.53
2017-11-23T11:14:51.757Z,14.66
2017-11-23T11:16:00.845Z,14.79
2017-11-23T11:17:09.931Z,14.77
2017-11-23T11:18:18.519Z,14.74
2017-11-23T11:19:27.333Z,14.8
2017-11-23T11:20:36.158Z,14.82
2017-11-23T11:21:44.713Z,15.01
2017-11-23T11:22:53.271Z,15.01
2017-11-23T11:24:02.363Z,14.9
2017-11-23T11:25:11.450Z,14.93
2017-11-23T11:26:20.537Z,14.85
2017-11-23T11:27:29.079Z,14.9
2017-11-23T11:28:38.165Z,14.82
2017-11-23T11:29:47.273Z,14.8
2017-11-23T11:30:55.815Z,14.83
2017-11-23T11:32:04.641Z,14.93
2017-11-23T11:33:13.454Z,15
2017-11-23T11:34:22.541Z,15
2017-11-23T11:35:31.084Z,14.95
2017-11-23T11:36:39.626Z,15.08
2017-11-23T11:37:48.167Z,15.18
2017-11-23T11:38:56.989Z,15.16
2017-11-23T11:40:05.616Z,15.2
2017-11-23T11:41:14.447Z,15.15
2017-11-23T11:42:22.977Z,15.25
2017-11-23T11:43:31.526Z,15.27
2017-11-23T11:44:40.073Z,15.31
2017-11-23T11:45:48.888Z,15.3
2017-11-23T11:46:57.977Z,15.38
2017-11-23T11:48:06.805Z,15.41
2017-11-23T11:49:15.637Z,15.43
2017-11-23T11:50:24.454Z,15.53
2017-11-23T11:51:33.266Z,15.49
2017-11-23T11:52:41.815Z,15.65
2017-11-23T11:53:50.641Z,15.65
2017-11-23T11:54:59.464Z,15.63
2017-11-23T11:56:08.552Z,15.6
2017-11-23T11:57:17.099Z,15.62
2017-11-23T11:58:25.917Z,15.68
2017-11-23T11:59:34.458Z,15.75
2017-11-23T12:00:43.282Z,15.74
2017-11-23T12:01:52.389Z,15.74
2017-11-23T12:03:01.477Z,15.74
2017-11-23T12:04:10.022Z,15.77
2017-11-23T12:05:19.385Z,15.62
2017-11-23T12:06:28.201Z,15.65
2017-11-23T12:07:37.023Z,15.65
2017-11-23T12:08:45.840Z,15.74
2017-11-23T12:09:54.652Z,15.81
2017-11-23T12:11:03.734Z,15.78
2017-11-23T12:12:12.820Z,15.75
2017-11-23T12:13:21.647Z,15.83
2017-11-23T12:14:30.749Z,15.73
2017-11-23T12:15:39.291Z,15.78
2017-11-23T12:16:48.113Z,15.7
2017-11-23T12:17:56.659Z,15.8
2017-11-23T12:19:05.474Z,15.74
2017-11-23T12:20:14.018Z,15.8
2017-11-23T12:21:22.833Z,15.74
2017-11-23T12:22:31.376Z,15.77
2017-11-23T12:23:39.920Z,15.84
2017-11-23T12:24:49.153Z,15.89
2017-11-23T12:25:57.697Z,15.98
2017-11-23T12:27:06.244Z,15.96
2017-11-23T12:28:14.786Z,15.99
2017-11-23T12:29:23.327Z,15.95
2017-11-23T12:30:32.508Z,15.96
2017-11-23T12:31:41.049Z,15.92
2017-11-23T12:32:50.138Z,15.92
2017-11-23T12:33:58.684Z,15.84
2017-11-23T12:35:07.230Z,15.83
2017-11-23T12:36:15.833Z,15.86
2017-11-23T12:37:24.386Z,15.78
2017-11-23T12:38:33.469Z,15.75
2017-11-23T12:39:42.017Z,15.8
2017-11-23T12:40:50.836Z,15.86
2017-11-23T12:42:00.199Z,15.83
2017-11-23T12:43:08.741Z,15.8
2017-11-23T12:44:17.558Z,15.84
2017-11-23T12:45:26.104Z,15.75
2017-11-23T12:46:34.928Z,15.77
2017-11-23T12:47:43.494Z,15.73
2017-11-23T12:48:52.036Z,15.75
2017-11-23T12:50:00.871Z,15.75
2017-11-23T12:51:09.962Z,15.86
2017-11-23T12:52:19.058Z,15.8
2017-11-23T12:53:28.140Z,15.74
2017-11-23T12:54:36.958Z,15.81
2017-11-23T12:55:45.778Z,15.81
2017-11-23T12:56:54.323Z,15.71
2017-11-23T12:58:03.687Z,15.8
2017-11-23T12:59:12.503Z,15.73
2017-11-23T13:00:21.315Z,15.8
2017-11-23T13:01:30.127Z,15.71
2017-11-23T13:02:38.677Z,15.74
2017-11-23T13:03:47.217Z,15.74
2017-11-23T13:04:55.759Z,15.78
2017-11-23T13:06:04.580Z,15.77
2017-11-23T13:07:13.666Z,15.83
2017-11-23T13:08:22.481Z,15.74
2017-11-23T13:09:31.570Z,15.74
2017-11-23T13:10:40.384Z,15.68
2017-11-23T13:11:48.931Z,15.68
2017-11-23T13:12:57.767Z,15.67
2017-11-23T13:14:06.903Z,15.68
2017-11-23T13:15:15.990Z,15.67
2017-11-23T13:16:24.536Z,15.74
2017-11-23T13:17:33.088Z,15.7
2017-11-23T13:18:41.655Z,15.74
2017-11-23T13:19:50.246Z,15.73
2017-11-23T13:20:58.800Z,15.73
2017-11-23T13:22:07.345Z,15.68
2017-11-23T13:23:15.906Z,15.74
2017-11-23T13:24:25.265Z,15.67
2017-11-23T13:25:34.126Z,15.68
2017-11-23T13:26:42.948Z,15.65
2017-11-23T13:27:51.556Z,15.67
2017-11-23T13:29:00.371Z,15.62
2017-11-23T13:30:09.463Z,15.62
2017-11-23T13:31:18.579Z,15.6
2017-11-23T13:32:27.206Z,15.56
2017-11-23T13:33:36.024Z,15.71
2017-11-23T13:34:44.571Z,15.65
2017-11-23T13:35:53.401Z,15.65
2017-11-23T13:37:02.765Z,15.67
2017-11-23T13:38:11.587Z,15.65
2017-11-23T13:39:20.128Z,15.77
2017-11-23T13:40:29.492Z,15.71
2017-11-23T13:41:38.307Z,15.78
2017-11-23T13:42:47.142Z,15.83
2017-11-23T13:43:55.955Z,15.74
2017-11-23T13:45:05.043Z,15.74
2017-11-23T13:46:13.586Z,15.75
2017-11-23T13:47:22.679Z,15.73
2017-11-23T13:48:31.488Z,15.71
2017-11-23T13:49:40.557Z,15.75
2017-11-23T13:50:49.373Z,15.78
2017-11-23T13:51:57.917Z,15.78
2017-11-23T13:53:06.460Z,15.83
2017-11-23T13:54:15.126Z,15.83
2017-11-23T13:55:24.852Z,15.92
2017-11-23T13:56:33.576Z,15.83
2017-11-23T13:57:42.114Z,15.84
2017-11-23T13:58:50.944Z,15.83
2017-11-23T13:59:59.764Z,15.84
2017-11-23T14:01:08.310Z,15.89
2017-11-23T14:02:17.125Z,15.83
2017-11-23T14:03:25.678Z,15.86
2017-11-23T14:04:34.504Z,15.89
2017-11-23T14:05:43.060Z,15.84
2017-11-23T14:06:52.422Z,15.95
2017-11-23T14:08:00.968Z,15.95
2017-11-23T14:09:09.511Z,15.99
2017-11-23T14:10:18.332Z,15.98
2017-11-23T14:11:26.879Z,15.98
2017-11-23T14:12:35.699Z,15.96
2017-11-23T14:13:44.241Z,15.95
2017-11-23T14:14:53.333Z,15.95
2017-11-23T14:16:02.158Z,15.92
2017-11-23T14:17:10.697Z,15.98
2017-11-23T14:18:19.680Z,16.02
2017-11-23T14:19:28.498Z,15.96
2017-11-23T14:20:37.668Z,15.96
2017-11-23T14:21:47.464Z,15.96
2017-11-23T14:22:56.269Z,16
2017-11-23T14:24:04.814Z,15.91
2017-11-23T14:25:14.328Z,15.98
2017-11-23T14:26:23.142Z,15.86
2017-11-23T14:27:31.684Z,15.86
2017-11-23T14:28:40.794Z,15.81
2017-11-23T14:29:49.890Z,15.84
2017-11-23T14:30:58.702Z,15.83
2017-11-23T14:32:07.408Z,15.83
2017-11-23T14:33:16.784Z,15.86
2017-11-23T14:34:25.684Z,15.75
2017-11-23T14:35:34.321Z,15.68
2017-11-23T14:36:42.868Z,15.73
2017-11-23T14:37:51.685Z,15.6
2017-11-23T14:39:00.232Z,15.51
2017-11-23T14:40:09.339Z,15.37
2017-11-23T14:41:18.141Z,15.04
2017-11-23T14:42:26.979Z,14.98
2017-11-23T14:43:35.770Z,14.69
2017-11-23T14:44:44.857Z,14.48
2017-11-23T14:45:53.672Z,14.3
2017-11-23T14:47:02.492Z,14.16
2017-11-23T14:48:11.028Z,14.19
2017-11-23T14:49:19.570Z,14.03
2017-11-23T14:50:28.393Z,13.97
2017-11-23T14:51:37.208Z,13.88
2017-11-23T14:52:45.749Z,13.91
2017-11-23T14:53:54.845Z,13.75
2017-11-23T14:55:03.664Z,13.69